sensor_id;sensor_type;location;lat;lon;timestamp;pressure;altitude;pressure_sealevel;temperature;humidity
77240;BME280;66258;53.170;-2.240;2023-04-24T00:01:52;99438.91;;;15.81;99.07
77240;BME280;66258;53.170;-2.240;2023-04-24T00:04:20;99444.66;;;15.73;99.12
77240;BME280;66258;53.170;-2.240;2023-04-24T00:06:47;99451.34;;;15.77;98.51
77240;BME280;66258;53.170;-2.240;2023-04-24T00:09:17;99453.31;;;15.64;98.23
77240;BME280;66258;53.170;-2.240;2023-04-24T00:11:45;99453.75;;;15.61;98.37
77240;BME280;66258;53.170;-2.240;2023-04-24T00:14:13;99457.28;;;15.30;97.88
77240;BME280;66258;53.170;-2.240;2023-04-24T00:16:40;99456.09;;;15.51;98.01
77240;BME280;66258;53.170;-2.240;2023-04-24T00:19:07;99453.38;;;15.57;97.14
77240;BME280;66258;53.170;-2.240;2023-04-24T00:21:35;99461.13;;;15.54;96.68
77240;BME280;66258;53.170;-2.240;2023-04-24T00:24:03;99452.97;;;15.47;96.57
77240;BME280;66258;53.170;-2.240;2023-04-24T00:26:33;99451.78;;;15.36;96.26
77240;BME280;66258;53.170;-2.240;2023-04-24T00:29:00;99458.00;;;15.12;95.65
77240;BME280;66258;53.170;-2.240;2023-04-24T00:31:28;99461.88;;;15.36;94.23
77240;BME280;66258;53.170;-2.240;2023-04-24T00:33:55;99454.78;;;15.22;93.54
77240;BME280;66258;53.170;-2.240;2023-04-24T00:36:23;99459.81;;;15.25;93.29
77240;BME280;66258;53.170;-2.240;2023-04-24T00:38:50;99457.72;;;15.27;92.80
77240;BME280;66258;53.170;-2.240;2023-04-24T00:41:18;99456.94;;;15.13;92.21
77240;BME280;66258;53.170;-2.240;2023-04-24T00:43:48;99454.44;;;15.05;91.72
77240;BME280;66258;53.170;-2.240;2023-04-24T00:46:16;99468.69;;;15.07;90.83
77240;BME280;66258;53.170;-2.240;2023-04-24T00:48:44;99474.34;;;15.12;90.36
77240;BME280;66258;53.170;-2.240;2023-04-24T00:51:13;99476.72;;;14.95;89.52
77240;BME280;66258;53.170;-2.240;2023-04-24T00:53:41;99480.88;;;15.04;89.08
77240;BME280;66258;53.170;-2.240;2023-04-24T00:56:09;99477.28;;;15.10;89.29
77240;BME280;66258;53.170;-2.240;2023-04-24T00:58:38;99470.66;;;14.93;89.24
77240;BME280;66258;53.170;-2.240;2023-04-24T01:01:09;99470.22;;;14.96;88.58
77240;BME280;66258;53.170;-2.240;2023-04-24T01:03:36;99471.63;;;15.05;88.63
77240;BME280;66258;53.170;-2.240;2023-04-24T01:06:05;99475.69;;;14.96;88.35
77240;BME280;66258;53.170;-2.240;2023-04-24T01:08:34;99481.97;;;14.90;88.19
77240;BME280;66258;53.170;-2.240;2023-04-24T01:11:04;99483.06;;;14.76;87.98
77240;BME280;66258;53.170;-2.240;2023-04-24T01:13:32;99484.16;;;14.62;87.75
77240;BME280;66258;53.170;-2.240;2023-04-24T01:16:00;99491.50;;;14.55;88.08
77240;BME280;66258;53.170;-2.240;2023-04-24T01:18:30;99502.16;;;14.69;87.65
77240;BME280;66258;53.170;-2.240;2023-04-24T01:20:59;99504.47;;;14.66;88.18
77240;BME280;66258;53.170;-2.240;2023-04-24T01:23:32;99503.22;;;14.62;88.23
77240;BME280;66258;53.170;-2.240;2023-04-24T01:25:59;99504.88;;;14.63;88.34
77240;BME280;66258;53.170;-2.240;2023-04-24T01:28:27;99507.84;;;14.55;88.30
77240;BME280;66258;53.170;-2.240;2023-04-24T01:30:54;99519.34;;;14.63;88.82
77240;BME280;66258;53.170;-2.240;2023-04-24T01:33:22;99509.72;;;14.61;88.47
77240;BME280;66258;53.170;-2.240;2023-04-24T01:35:51;99518.09;;;14.59;88.42
77240;BME280;66258;53.170;-2.240;2023-04-24T01:38:18;99514.09;;;14.55;88.98
77240;BME280;66258;53.170;-2.240;2023-04-24T01:40:49;99519.56;;;14.55;89.42
77240;BME280;66258;53.170;-2.240;2023-04-24T01:43:16;99519.16;;;14.52;89.67
77240;BME280;66258;53.170;-2.240;2023-04-24T01:45:46;99522.91;;;14.57;89.63
77240;BME280;66258;53.170;-2.240;2023-04-24T01:48:13;99522.72;;;14.52;89.69
77240;BME280;66258;53.170;-2.240;2023-04-24T01:50:41;99515.59;;;14.44;89.66
77240;BME280;66258;53.170;-2.240;2023-04-24T01:53:08;99511.63;;;14.40;90.17
77240;BME280;66258;53.170;-2.240;2023-04-24T01:55:36;99520.16;;;14.37;90.17
77240;BME280;66258;53.170;-2.240;2023-04-24T01:58:06;99517.03;;;14.21;90.33
77240;BME280;66258;53.170;-2.240;2023-04-24T02:00:34;99519.56;;;14.29;90.46
77240;BME280;66258;53.170;-2.240;2023-04-24T02:03:01;99519.13;;;14.38;89.99
77240;BME280;66258;53.170;-2.240;2023-04-24T02:05:30;99517.44;;;14.37;90.20
77240;BME280;66258;53.170;-2.240;2023-04-24T02:07:57;99518.31;;;14.44;89.70
77240;BME280;66258;53.170;-2.240;2023-04-24T02:10:25;99523.72;;;14.38;89.88
77240;BME280;66258;53.170;-2.240;2023-04-24T02:12:53;99523.78;;;14.51;89.63
77240;BME280;66258;53.170;-2.240;2023-04-24T02:15:23;99531.09;;;14.44;89.03
77240;BME280;66258;53.170;-2.240;2023-04-24T02:17:50;99529.63;;;14.55;88.76
77240;BME280;66258;53.170;-2.240;2023-04-24T02:20:18;99532.53;;;14.40;88.34
77240;BME280;66258;53.170;-2.240;2023-04-24T02:22:46;99536.72;;;14.36;88.34
77240;BME280;66258;53.170;-2.240;2023-04-24T02:25:13;99535.47;;;14.38;88.81
77240;BME280;66258;53.170;-2.240;2023-04-24T02:27:42;99540.75;;;14.47;88.09
77240;BME280;66258;53.170;-2.240;2023-04-24T02:30:11;99537.81;;;14.48;88.11
77240;BME280;66258;53.170;-2.240;2023-04-24T02:32:40;99550.81;;;14.53;88.00
77240;BME280;66258;53.170;-2.240;2023-04-24T02:35:09;99550.59;;;14.54;87.53
77240;BME280;66258;53.170;-2.240;2023-04-24T02:37:36;99540.06;;;14.38;88.19
77240;BME280;66258;53.170;-2.240;2023-04-24T02:40:05;99550.13;;;14.37;88.90
77240;BME280;66258;53.170;-2.240;2023-04-24T02:42:33;99550.97;;;14.31;89.21
77240;BME280;66258;53.170;-2.240;2023-04-24T02:45:01;99553.06;;;14.36;89.13
77240;BME280;66258;53.170;-2.240;2023-04-24T02:47:29;99555.19;;;14.40;88.90
77240;BME280;66258;53.170;-2.240;2023-04-24T02:49:59;99555.97;;;14.34;89.28
77240;BME280;66258;53.170;-2.240;2023-04-24T02:52:27;99560.38;;;14.35;89.06
77240;BME280;66258;53.170;-2.240;2023-04-24T02:54:54;99566.91;;;14.41;89.53
77240;BME280;66258;53.170;-2.240;2023-04-24T02:57:22;99572.53;;;14.39;89.13
77240;BME280;66258;53.170;-2.240;2023-04-24T02:59:50;99571.06;;;14.37;88.76
77240;BME280;66258;53.170;-2.240;2023-04-24T03:02:17;99569.59;;;14.34;88.65
77240;BME280;66258;53.170;-2.240;2023-04-24T03:04:47;99570.03;;;14.38;89.41
77240;BME280;66258;53.170;-2.240;2023-04-24T03:07:16;99576.31;;;14.38;88.53
77240;BME280;66258;53.170;-2.240;2023-04-24T03:09:44;99573.81;;;14.30;88.10
77240;BME280;66258;53.170;-2.240;2023-04-24T03:12:11;99581.13;;;14.36;88.21
77240;BME280;66258;53.170;-2.240;2023-04-24T03:14:39;99581.97;;;14.37;88.25
77240;BME280;66258;53.170;-2.240;2023-04-24T03:17:06;99584.03;;;14.35;88.56
77240;BME280;66258;53.170;-2.240;2023-04-24T03:19:34;99592.03;;;14.56;87.67
77240;BME280;66258;53.170;-2.240;2023-04-24T03:22:02;99595.59;;;14.57;86.91
77240;BME280;66258;53.170;-2.240;2023-04-24T03:24:31;99590.78;;;14.59;86.61
77240;BME280;66258;53.170;-2.240;2023-04-24T03:27:00;99599.19;;;14.64;86.82
77240;BME280;66258;53.170;-2.240;2023-04-24T03:29:27;99597.09;;;14.66;86.24
77240;BME280;66258;53.170;-2.240;2023-04-24T03:31:56;99598.13;;;14.58;86.64
77240;BME280;66258;53.170;-2.240;2023-04-24T03:34:24;99597.91;;;14.60;86.48
77240;BME280;66258;53.170;-2.240;2023-04-24T03:36:52;99600.44;;;14.61;86.72
77240;BME280;66258;53.170;-2.240;2023-04-24T03:39:19;99593.31;;;14.60;86.06
77240;BME280;66258;53.170;-2.240;2023-04-24T03:41:48;99605.44;;;14.58;86.71
77240;BME280;66258;53.170;-2.240;2023-04-24T03:44:16;99607.97;;;14.59;87.00
77240;BME280;66258;53.170;-2.240;2023-04-24T03:46:45;99592.91;;;14.63;87.08
77240;BME280;66258;53.170;-2.240;2023-04-24T03:49:12;99597.28;;;14.64;86.84
77240;BME280;66258;53.170;-2.240;2023-04-24T03:51:41;99593.34;;;14.54;86.15
77240;BME280;66258;53.170;-2.240;2023-04-24T03:54:08;99592.06;;;14.50;86.83
77240;BME280;66258;53.170;-2.240;2023-04-24T03:56:36;99598.53;;;14.55;86.15
77240;BME280;66258;53.170;-2.240;2023-04-24T03:59:05;99605.91;;;14.55;86.23
77240;BME280;66258;53.170;-2.240;2023-04-24T04:01:33;99607.75;;;14.61;86.31
77240;BME280;66258;53.170;-2.240;2023-04-24T04:04:01;99610.91;;;14.64;85.95
77240;BME280;66258;53.170;-2.240;2023-04-24T04:06:29;99613.44;;;14.66;85.85
77240;BME280;66258;53.170;-2.240;2023-04-24T04:08:57;99611.75;;;14.65;86.06
77240;BME280;66258;53.170;-2.240;2023-04-24T04:11:25;99614.69;;;14.63;86.33
77240;BME280;66258;53.170;-2.240;2023-04-24T04:13:52;99618.03;;;14.65;86.61
77240;BME280;66258;53.170;-2.240;2023-04-24T04:16:22;99614.06;;;14.61;86.90
77240;BME280;66258;53.170;-2.240;2023-04-24T04:18:50;99620.75;;;14.59;87.23
77240;BME280;66258;53.170;-2.240;2023-04-24T04:21:19;99622.63;;;14.58;87.07
77240;BME280;66258;53.170;-2.240;2023-04-24T04:23:46;99625.38;;;14.52;87.48
77240;BME280;66258;53.170;-2.240;2023-04-24T04:26:14;99619.72;;;14.53;87.22
77240;BME280;66258;53.170;-2.240;2023-04-24T04:28:41;99621.38;;;14.48;87.72
77240;BME280;66258;53.170;-2.240;2023-04-24T04:31:09;99629.16;;;14.51;87.43
77240;BME280;66258;53.170;-2.240;2023-04-24T04:33:39;99633.72;;;14.30;87.46
77240;BME280;66258;53.170;-2.240;2023-04-24T04:36:06;99628.84;;;14.19;88.02
77240;BME280;66258;53.170;-2.240;2023-04-24T04:38:34;99635.78;;;14.28;87.84
77240;BME280;66258;53.170;-2.240;2023-04-24T04:41:02;99627.81;;;14.27;87.67
77240;BME280;66258;53.170;-2.240;2023-04-24T04:43:30;99641.00;;;14.23;87.78
77240;BME280;66258;53.170;-2.240;2023-04-24T04:45:58;99636.84;;;14.27;86.70
77240;BME280;66258;53.170;-2.240;2023-04-24T04:48:25;99643.94;;;14.22;86.33
77240;BME280;66258;53.170;-2.240;2023-04-24T04:50:55;99647.31;;;14.37;85.76
77240;BME280;66258;53.170;-2.240;2023-04-24T04:53:23;99654.06;;;14.48;84.73
77240;BME280;66258;53.170;-2.240;2023-04-24T04:55:52;99648.19;;;14.57;83.08
77240;BME280;66258;53.170;-2.240;2023-04-24T04:58:20;99651.34;;;14.61;82.93
77240;BME280;66258;53.170;-2.240;2023-04-24T05:00:48;99665.19;;;14.66;82.54
77240;BME280;66258;53.170;-2.240;2023-04-24T05:03:16;99670.84;;;14.71;82.21
77240;BME280;66258;53.170;-2.240;2023-04-24T05:05:47;99672.53;;;14.72;82.06
77240;BME280;66258;53.170;-2.240;2023-04-24T05:08:17;99670.22;;;14.69;82.58
77240;BME280;66258;53.170;-2.240;2023-04-24T05:10:53;99670.84;;;14.77;82.44
77240;BME280;66258;53.170;-2.240;2023-04-24T05:13:21;99676.94;;;14.73;82.63
77240;BME280;66258;53.170;-2.240;2023-04-24T05:16:05;99673.34;;;14.66;83.33
77240;BME280;66258;53.170;-2.240;2023-04-24T05:18:33;99677.53;;;14.62;83.98
77240;BME280;66258;53.170;-2.240;2023-04-24T05:21:01;99675.03;;;14.54;84.97
77240;BME280;66258;53.170;-2.240;2023-04-24T05:23:30;99682.38;;;14.66;84.55
77240;BME280;66258;53.170;-2.240;2023-04-24T05:25:57;99679.44;;;14.61;84.77
77240;BME280;66258;53.170;-2.240;2023-04-24T05:28:24;99683.59;;;14.57;84.97
77240;BME280;66258;53.170;-2.240;2023-04-24T05:30:51;99682.59;;;14.65;85.41
77240;BME280;66258;53.170;-2.240;2023-04-24T05:33:18;99685.94;;;14.73;84.75
77240;BME280;66258;53.170;-2.240;2023-04-24T05:35:46;99685.75;;;14.75;84.94
77240;BME280;66258;53.170;-2.240;2023-04-24T05:38:14;99696.00;;;14.73;85.32
77240;BME280;66258;53.170;-2.240;2023-04-24T05:40:43;99685.72;;;14.82;85.64
77240;BME280;66258;53.170;-2.240;2023-04-24T05:43:11;99696.44;;;14.70;86.74
77240;BME280;66258;53.170;-2.240;2023-04-24T05:45:39;99692.66;;;14.84;87.31
77240;BME280;66258;53.170;-2.240;2023-04-24T05:48:06;99690.75;;;14.85;87.81
77240;BME280;66258;53.170;-2.240;2023-04-24T05:50:34;99707.31;;;15.03;86.16
77240;BME280;66258;53.170;-2.240;2023-04-24T05:53:04;99703.13;;;15.00;85.64
77240;BME280;66258;53.170;-2.240;2023-04-24T05:55:31;99707.13;;;15.04;84.62
77240;BME280;66258;53.170;-2.240;2023-04-24T05:58:00;99699.75;;;14.98;83.85
77240;BME280;66258;53.170;-2.240;2023-04-24T06:00:28;99708.16;;;15.03;83.81
77240;BME280;66258;53.170;-2.240;2023-04-24T06:02:56;99712.38;;;15.12;83.75
77240;BME280;66258;53.170;-2.240;2023-04-24T06:05:25;99716.75;;;15.20;83.65
77240;BME280;66258;53.170;-2.240;2023-04-24T06:07:53;99719.91;;;15.37;82.35
77240;BME280;66258;53.170;-2.240;2023-04-24T06:10:20;99725.09;;;15.78;81.64
77240;BME280;66258;53.170;-2.240;2023-04-24T06:12:48;99728.56;;;15.98;79.63
77240;BME280;66258;53.170;-2.240;2023-04-24T06:15:18;99729.72;;;16.22;78.33
77240;BME280;66258;53.170;-2.240;2023-04-24T06:17:46;99731.59;;;16.22;76.64
77240;BME280;66258;53.170;-2.240;2023-04-24T06:20:14;99732.91;;;16.12;76.14
77240;BME280;66258;53.170;-2.240;2023-04-24T06:22:42;99724.78;;;15.99;75.72
77240;BME280;66258;53.170;-2.240;2023-04-24T06:25:10;99727.28;;;16.01;73.92
77240;BME280;66258;53.170;-2.240;2023-04-24T06:27:38;99727.13;;;15.89;76.48
77240;BME280;66258;53.170;-2.240;2023-04-24T06:30:07;99723.16;;;15.85;76.13
77240;BME280;66258;53.170;-2.240;2023-04-24T06:32:36;99731.69;;;16.02;73.48
77240;BME280;66258;53.170;-2.240;2023-04-24T06:35:06;99728.31;;;16.13;71.01
77240;BME280;66258;53.170;-2.240;2023-04-24T06:37:35;99733.13;;;16.11;72.55
77240;BME280;66258;53.170;-2.240;2023-04-24T06:40:03;99739.19;;;16.20;71.05
77240;BME280;66258;53.170;-2.240;2023-04-24T06:42:34;99739.22;;;16.51;69.08
77240;BME280;66258;53.170;-2.240;2023-04-24T06:45:03;99745.09;;;16.55;68.94
77240;BME280;66258;53.170;-2.240;2023-04-24T06:47:31;99745.00;;;16.74;68.31
77240;BME280;66258;53.170;-2.240;2023-04-24T06:50:00;99741.81;;;17.09;70.75
77240;BME280;66258;53.170;-2.240;2023-04-24T06:52:28;99754.38;;;17.66;70.76
77240;BME280;66258;53.170;-2.240;2023-04-24T06:55:00;99750.88;;;17.77;66.55
77240;BME280;66258;53.170;-2.240;2023-04-24T06:57:29;99757.97;;;17.60;64.62
77240;BME280;66258;53.170;-2.240;2023-04-24T06:59:57;99762.06;;;17.51;61.50
77240;BME280;66258;53.170;-2.240;2023-04-24T07:02:25;99762.97;;;17.45;62.99
77240;BME280;66258;53.170;-2.240;2023-04-24T07:04:52;99762.50;;;17.48;63.34
77240;BME280;66258;53.170;-2.240;2023-04-24T07:07:22;99762.88;;;17.51;63.81
77240;BME280;66258;53.170;-2.240;2023-04-24T07:09:51;99761.78;;;17.34;62.30
77240;BME280;66258;53.170;-2.240;2023-04-24T07:12:19;99764.97;;;17.31;61.37
77240;BME280;66258;53.170;-2.240;2023-04-24T07:14:46;99767.00;;;17.17;59.77
77240;BME280;66258;53.170;-2.240;2023-04-24T07:17:13;99758.53;;;16.94;61.23
77240;BME280;66258;53.170;-2.240;2023-04-24T07:19:42;99770.72;;;16.98;62.84
77240;BME280;66258;53.170;-2.240;2023-04-24T07:22:10;99766.53;;;16.58;63.13
77240;BME280;66258;53.170;-2.240;2023-04-24T07:24:39;99769.59;;;16.30;61.24
77240;BME280;66258;53.170;-2.240;2023-04-24T07:27:07;99763.72;;;16.26;61.11
77240;BME280;66258;53.170;-2.240;2023-04-24T07:29:35;99769.16;;;16.39;61.12
77240;BME280;66258;53.170;-2.240;2023-04-24T07:32:02;99768.13;;;16.34;59.63
77240;BME280;66258;53.170;-2.240;2023-04-24T07:34:30;99775.19;;;16.48;58.96
77240;BME280;66258;53.170;-2.240;2023-04-24T07:36:58;99768.41;;;16.19;60.41
77240;BME280;66258;53.170;-2.240;2023-04-24T07:39:26;99770.94;;;16.14;61.33
77240;BME280;66258;53.170;-2.240;2023-04-24T07:41:56;99773.06;;;16.57;59.96
77240;BME280;66258;53.170;-2.240;2023-04-24T07:44:24;99784.84;;;16.89;59.88
77240;BME280;66258;53.170;-2.240;2023-04-24T07:46:52;99783.50;;;17.29;59.28
77240;BME280;66258;53.170;-2.240;2023-04-24T07:49:20;99796.22;;;17.92;59.73
77240;BME280;66258;53.170;-2.240;2023-04-24T07:51:48;99798.41;;;18.56;56.17
77240;BME280;66258;53.170;-2.240;2023-04-24T07:54:17;99805.38;;;18.88;54.34
77240;BME280;66258;53.170;-2.240;2023-04-24T07:56:45;99808.75;;;19.14;52.43
77240;BME280;66258;53.170;-2.240;2023-04-24T07:59:15;99811.63;;;19.07;52.13
77240;BME280;66258;53.170;-2.240;2023-04-24T08:01:44;99813.38;;;19.32;51.76
77240;BME280;66258;53.170;-2.240;2023-04-24T08:04:11;99806.44;;;19.29;50.47
77240;BME280;66258;53.170;-2.240;2023-04-24T08:06:38;99800.00;;;19.47;51.00
77240;BME280;66258;53.170;-2.240;2023-04-24T08:09:07;99807.56;;;19.63;51.65
77240;BME280;66258;53.170;-2.240;2023-04-24T08:11:34;99816.13;;;20.25;49.28
77240;BME280;66258;53.170;-2.240;2023-04-24T08:14:02;99810.53;;;20.20;47.80
77240;BME280;66258;53.170;-2.240;2023-04-24T08:16:32;99811.75;;;19.77;47.67
77240;BME280;66258;53.170;-2.240;2023-04-24T08:18:59;99799.88;;;19.30;47.00
77240;BME280;66258;53.170;-2.240;2023-04-24T08:21:28;99802.56;;;19.07;48.17
77240;BME280;66258;53.170;-2.240;2023-04-24T08:23:56;99798.97;;;18.65;48.12
77240;BME280;66258;53.170;-2.240;2023-04-24T08:26:23;99797.75;;;18.42;50.19
77240;BME280;66258;53.170;-2.240;2023-04-24T08:28:51;99799.28;;;18.02;49.64
77240;BME280;66258;53.170;-2.240;2023-04-24T08:31:19;99803.34;;;17.74;50.75
77240;BME280;66258;53.170;-2.240;2023-04-24T08:33:48;99803.91;;;17.83;51.85
77240;BME280;66258;53.170;-2.240;2023-04-24T08:36:16;99798.47;;;17.76;51.46
77240;BME280;66258;53.170;-2.240;2023-04-24T08:38:44;99807.88;;;17.87;50.28
77240;BME280;66258;53.170;-2.240;2023-04-24T08:41:11;99802.34;;;17.69;49.93
77240;BME280;66258;53.170;-2.240;2023-04-24T08:43:42;99803.84;;;17.40;50.96
77240;BME280;66258;53.170;-2.240;2023-04-24T08:46:10;99801.44;;;17.50;51.93
77240;BME280;66258;53.170;-2.240;2023-04-24T08:48:39;99817.16;;;18.23;54.16
77240;BME280;66258;53.170;-2.240;2023-04-24T08:51:10;99820.53;;;19.33;49.84
77240;BME280;66258;53.170;-2.240;2023-04-24T08:53:37;99820.13;;;19.71;47.33
77240;BME280;66258;53.170;-2.240;2023-04-24T08:56:05;99821.81;;;19.95;47.63
77240;BME280;66258;53.170;-2.240;2023-04-24T08:58:33;99822.03;;;19.82;46.56
77240;BME280;66258;53.170;-2.240;2023-04-24T09:01:01;99823.94;;;20.05;46.51
77240;BME280;66258;53.170;-2.240;2023-04-24T09:03:29;99839.97;;;20.71;45.74
77240;BME280;66258;53.170;-2.240;2023-04-24T09:05:58;99836.31;;;21.11;44.54
77240;BME280;66258;53.170;-2.240;2023-04-24T09:08:28;99834.53;;;20.48;42.07
77240;BME280;66258;53.170;-2.240;2023-04-24T09:10:56;99834.31;;;20.03;43.58
77240;BME280;66258;53.170;-2.240;2023-04-24T09:13:24;99831.66;;;20.19;45.74
77240;BME280;66258;53.170;-2.240;2023-04-24T09:15:51;99829.88;;;21.05;43.54
77240;BME280;66258;53.170;-2.240;2023-04-24T09:18:18;99832.66;;;21.34;42.35
77240;BME280;66258;53.170;-2.240;2023-04-24T09:20:58;99843.09;;;21.48;41.90
77240;BME280;66258;53.170;-2.240;2023-04-24T09:23:28;99833.53;;;20.94;41.59
77240;BME280;66258;53.170;-2.240;2023-04-24T09:25:56;99842.22;;;20.11;43.63
77240;BME280;66258;53.170;-2.240;2023-04-24T09:28:30;99833.97;;;19.52;43.81
77240;BME280;66258;53.170;-2.240;2023-04-24T09:31:05;99832.22;;;19.40;44.11
77240;BME280;66258;53.170;-2.240;2023-04-24T09:33:32;99834.97;;;19.40;47.14
77240;BME280;66258;53.170;-2.240;2023-04-24T09:36:01;99843.28;;;19.63;44.56
77240;BME280;66258;53.170;-2.240;2023-04-24T09:38:35;99837.19;;;19.84;43.80
77240;BME280;66258;53.170;-2.240;2023-04-24T09:41:05;99844.34;;;19.62;42.68
77240;BME280;66258;53.170;-2.240;2023-04-24T09:43:33;99838.44;;;19.47;44.57
77240;BME280;66258;53.170;-2.240;2023-04-24T09:46:05;99848.75;;;20.33;44.08
77240;BME280;66258;53.170;-2.240;2023-04-24T09:48:34;99865.25;;;20.56;40.34
77240;BME280;66258;53.170;-2.240;2023-04-24T09:51:04;99856.75;;;20.98;40.62
77240;BME280;66258;53.170;-2.240;2023-04-24T09:53:33;99861.72;;;21.01;39.85
77240;BME280;66258;53.170;-2.240;2023-04-24T09:56:08;99851.44;;;21.37;41.50
77240;BME280;66258;53.170;-2.240;2023-04-24T09:58:36;99854.97;;;20.80;40.27
77240;BME280;66258;53.170;-2.240;2023-04-24T10:01:05;99853.06;;;20.29;41.49
77240;BME280;66258;53.170;-2.240;2023-04-24T10:03:33;99856.16;;;20.21;41.53
77240;BME280;66258;53.170;-2.240;2023-04-24T10:06:03;99854.84;;;19.65;39.82
77240;BME280;66258;53.170;-2.240;2023-04-24T10:08:35;99845.25;;;19.44;43.17
77240;BME280;66258;53.170;-2.240;2023-04-24T10:11:06;99852.38;;;19.87;43.00
77240;BME280;66258;53.170;-2.240;2023-04-24T10:13:35;99849.47;;;20.17;42.08
77240;BME280;66258;53.170;-2.240;2023-04-24T10:16:04;99845.81;;;20.75;42.39
77240;BME280;66258;53.170;-2.240;2023-04-24T10:18:33;99862.72;;;21.23;41.02
77240;BME280;66258;53.170;-2.240;2023-04-24T10:21:02;99867.28;;;22.13;42.66
77240;BME280;66258;53.170;-2.240;2023-04-24T10:23:30;99863.28;;;22.81;39.53
77240;BME280;66258;53.170;-2.240;2023-04-24T10:26:00;99878.06;;;23.46;35.35
77240;BME280;66258;53.170;-2.240;2023-04-24T10:28:28;99873.25;;;23.36;37.04
77240;BME280;66258;53.170;-2.240;2023-04-24T10:30:58;99874.69;;;22.90;35.78
77240;BME280;66258;53.170;-2.240;2023-04-24T10:33:28;99884.22;;;22.77;34.76
77240;BME280;66258;53.170;-2.240;2023-04-24T10:35:57;99882.50;;;23.20;35.42
77240;BME280;66258;53.170;-2.240;2023-04-24T10:38:28;99870.94;;;22.36;35.61
77240;BME280;66258;53.170;-2.240;2023-04-24T10:41:08;99868.22;;;21.85;37.54
77240;BME280;66258;53.170;-2.240;2023-04-24T10:43:39;99874.16;;;22.49;33.27
77240;BME280;66258;53.170;-2.240;2023-04-24T10:46:07;99882.31;;;21.89;33.39
77240;BME280;66258;53.170;-2.240;2023-04-24T10:48:36;99864.53;;;21.18;33.35
77240;BME280;66258;53.170;-2.240;2023-04-24T10:51:11;99860.78;;;20.67;35.53
77240;BME280;66258;53.170;-2.240;2023-04-24T10:53:40;99862.97;;;20.18;36.63
77240;BME280;66258;53.170;-2.240;2023-04-24T10:56:10;99869.44;;;20.47;37.51
77240;BME280;66258;53.170;-2.240;2023-04-24T10:58:39;99862.81;;;20.60;38.25
77240;BME280;66258;53.170;-2.240;2023-04-24T11:01:07;99863.91;;;20.59;37.61
77240;BME280;66258;53.170;-2.240;2023-04-24T11:03:35;99870.75;;;20.56;38.05
77240;BME280;66258;53.170;-2.240;2023-04-24T11:06:05;99854.56;;;20.72;37.58
77240;BME280;66258;53.170;-2.240;2023-04-24T11:08:37;99864.94;;;21.10;36.16
77240;BME280;66258;53.170;-2.240;2023-04-24T11:14:05;99867.53;;;20.13;35.70
77240;BME280;66258;53.170;-2.240;2023-04-24T11:16:36;99870.84;;;19.27;37.35
77240;BME280;66258;53.170;-2.240;2023-04-24T11:19:07;99863.41;;;19.15;38.26
77240;BME280;66258;53.170;-2.240;2023-04-24T11:21:44;99870.66;;;19.40;38.19
77240;BME280;66258;53.170;-2.240;2023-04-24T11:24:27;99866.44;;;19.67;37.26
77240;BME280;66258;53.170;-2.240;2023-04-24T11:27:00;99869.91;;;19.86;38.37
77240;BME280;66258;53.170;-2.240;2023-04-24T11:29:40;99873.38;;;20.91;40.70
77240;BME280;66258;53.170;-2.240;2023-04-24T11:32:19;99879.56;;;21.72;35.40
77240;BME280;66258;53.170;-2.240;2023-04-24T11:34:51;99893.09;;;21.90;34.63
77240;BME280;66258;53.170;-2.240;2023-04-24T11:37:19;99889.91;;;21.48;33.35
77240;BME280;66258;53.170;-2.240;2023-04-24T11:39:50;99897.91;;;20.93;33.60
77240;BME280;66258;53.170;-2.240;2023-04-24T11:42:21;99892.03;;;20.03;34.83
77240;BME280;66258;53.170;-2.240;2023-04-24T11:44:49;99889.41;;;19.43;37.06
77240;BME280;66258;53.170;-2.240;2023-04-24T11:47:30;99883.03;;;19.01;38.03
77240;BME280;66258;53.170;-2.240;2023-04-24T11:49:58;99887.19;;;18.73;37.48
77240;BME280;66258;53.170;-2.240;2023-04-24T11:52:27;99884.16;;;18.45;38.45
77240;BME280;66258;53.170;-2.240;2023-04-24T11:54:54;99888.47;;;18.71;39.02
77240;BME280;66258;53.170;-2.240;2023-04-24T11:57:24;99887.97;;;18.80;38.23
77240;BME280;66258;53.170;-2.240;2023-04-24T11:59:52;99893.97;;;18.71;38.02
77240;BME280;66258;53.170;-2.240;2023-04-24T12:02:21;99895.53;;;18.97;38.63
77240;BME280;66258;53.170;-2.240;2023-04-24T12:04:50;99899.75;;;19.29;37.45
77240;BME280;66258;53.170;-2.240;2023-04-24T12:07:18;99904.50;;;19.64;37.24
77240;BME280;66258;53.170;-2.240;2023-04-24T12:09:47;99901.31;;;19.67;38.16
77240;BME280;66258;53.170;-2.240;2023-04-24T12:12:19;99907.91;;;19.89;35.49
77240;BME280;66258;53.170;-2.240;2023-04-24T12:14:53;99904.09;;;20.02;37.45
77240;BME280;66258;53.170;-2.240;2023-04-24T12:17:25;99908.47;;;19.79;36.44
77240;BME280;66258;53.170;-2.240;2023-04-24T12:19:58;99902.28;;;19.72;37.16
77240;BME280;66258;53.170;-2.240;2023-04-24T12:22:26;99913.97;;;19.79;36.31
77240;BME280;66258;53.170;-2.240;2023-04-24T12:25:03;99910.00;;;19.75;35.31
77240;BME280;66258;53.170;-2.240;2023-04-24T12:27:31;99905.44;;;19.58;37.29
77240;BME280;66258;53.170;-2.240;2023-04-24T12:30:03;99910.56;;;19.54;36.18
77240;BME280;66258;53.170;-2.240;2023-04-24T12:32:31;99911.69;;;19.76;36.20
77240;BME280;66258;53.170;-2.240;2023-04-24T12:34:59;99908.72;;;19.66;36.69
77240;BME280;66258;53.170;-2.240;2023-04-24T12:37:33;99922.22;;;19.79;36.40
77240;BME280;66258;53.170;-2.240;2023-04-24T12:40:03;99922.84;;;20.16;36.93
77240;BME280;66258;53.170;-2.240;2023-04-24T12:42:32;99927.38;;;20.22;35.34
77240;BME280;66258;53.170;-2.240;2023-04-24T12:45:03;99923.09;;;20.03;36.45
77240;BME280;66258;53.170;-2.240;2023-04-24T12:47:33;99924.50;;;20.17;36.39
77240;BME280;66258;53.170;-2.240;2023-04-24T12:50:02;99922.13;;;20.21;34.91
77240;BME280;66258;53.170;-2.240;2023-04-24T12:52:30;99927.63;;;20.21;33.65
77240;BME280;66258;53.170;-2.240;2023-04-24T12:55:00;99925.47;;;20.23;36.36
77240;BME280;66258;53.170;-2.240;2023-04-24T12:57:29;99927.38;;;20.69;35.53
77240;BME280;66258;53.170;-2.240;2023-04-24T12:59:57;99917.69;;;21.18;34.32
77240;BME280;66258;53.170;-2.240;2023-04-24T13:02:27;99922.47;;;20.71;33.35